Saga Tide — VRYO8 — position and weather

sailwx.info

Track history (hours):
 
Tides and Currents Weather Stations Pressure Air Temp Water Temp Dewpoint Dewpoint Depression Visibility Wind Speed Wind Dir Waves Ship Positions

Saga Tide

Last reported at 2017-Nov-11 05:01 UTC. Time now 2017-Nov-22 02:06 UTC.
Position N 24°44' W 016°40'.
Warning: this ship's position is 10 days out of date.

Length 199 m; draft 8.1 m.

Type: Cargo ship. MMSI: 367154168.

Date/timePositionNaut miles runAvg speedWind from/ knotsBaromVisibWave heightAir tempDewpointWater temp
2017-Nov-11 05:01N 24°44' W 016°40'013.3
2017-Nov-11 04:59N 24°45' W 016°40'813.3
2017-Nov-11 04:24N 24°51' W 016°34'613.4
2017-Nov-11 03:57N 24°55' W 016°29'12312.9
2017-Nov-10 18:24N 26°26' W 014°57'512.4
2017-Nov-10 18:00N 26°30' W 014°54'612.3
2017-Nov-10 17:30N 26°35' W 014°50'612.4
2017-Nov-10 17:00N 26°40' W 014°46'612.4
2017-Nov-10 16:30N 26°45' W 014°41'612.4
2017-Nov-10 16:00N 26°50' W 014°37'612.6
2017-Nov-10 15:30N 26°55' W 014°32'612.6
2017-Nov-10 15:00N 26°59' W 014°27'712.7
2017-Nov-10 14:27N 27°04' W 014°22'712.9
2017-Nov-10 13:56N 27°09' W 014°17'612.8
2017-Nov-10 13:30N 27°13' W 014°13'1213.1
2017-Nov-10 12:37N 27°23' W 014°06'213.6
2017-Nov-10 12:30N 27°24' W 014°05'713.9
2017-Nov-10 12:00N 27°30' W 014°01'713.9
2017-Nov-10 11:31N 27°36' W 013°56'713.9
2017-Nov-10 11:00N 27°41' W 013°51'713.6
2017-Nov-10 10:30N 27°47' W 013°47'713.5
2017-Nov-10 10:00N 27°52' W 013°42'713.3
2017-Nov-10 09:30N 27°58' W 013°38'713.2
2017-Nov-10 09:00N 28°03' W 013°34'713.0
2017-Nov-10 08:30N 28°09' W 013°31'913.0
2017-Nov-10 07:49N 28°17' W 013°26'412.9
2017-Nov-10 07:30N 28°20' W 013°23'612.7
2017-Nov-10 07:00N 28°26' W 013°20'612.8
2017-Nov-10 06:30N 28°31' W 013°16'713.2
2017-Nov-10 06:00N 28°36' W 013°11'612.9
2017-Nov-10 05:30N 28°42' W 013°07'612.8
2017-Nov-10 05:00N 28°47' W 013°03'612.4
2017-Nov-10 04:30N 28°52' W 012°59'612.4
2017-Nov-10 04:00N 28°57' W 012°55'612.2
2017-Nov-10 03:30N 29°02' W 012°51'612.3
2017-Nov-10 03:00N 29°08' W 012°47'612.6
2017-Nov-10 02:30N 29°13' W 012°44'612.5
2017-Nov-10 02:00N 29°18' W 012°40'612.3
2017-Nov-10 01:30N 29°23' W 012°36'612.6
2017-Nov-10 01:00N 29°29' W 012°32'712.9
2017-Nov-10 00:28N 29°34' W 012°27'613.1
2017-Nov-10 00:00N 29°39' W 012°23'613.1
2017-Nov-09 23:30N 29°45' W 012°19'713.1
2017-Nov-09 23:00N 29°50' W 012°15'713.1
2017-Nov-09 22:30N 29°56' W 012°11'813.2
2017-Nov-09 21:53N 30°03' W 012°06'713.2
2017-Nov-09 21:21N 30°09' W 012°01'1112.8
2017-Nov-09 20:28N 30°18' W 011°54'613.1
2017-Nov-09 20:00N 30°23' W 011°49'813.5
2017-Nov-09 19:26N 30°29' W 011°44'613.9
2017-Nov-09 19:00N 30°34' W 011°40'713.6
2017-Nov-09 18:30N 30°39' W 011°36'713.3
2017-Nov-09 18:00N 30°45' W 011°31'713.7
2017-Nov-09 17:30N 30°51' W 011°27'913.7
2017-Nov-09 16:49N 30°58' W 011°21'414.0
2017-Nov-09 16:30N 31°02' W 011°18'714.2
2017-Nov-09 16:00N 31°08' W 011°13'3213.4
2017-Nov-09 13:39N 31°33' W 010°52'212.8
2017-Nov-09 13:30N 31°35' W 010°51'612.9
2017-Nov-09 13:00N 31°40' W 010°46'612.9
2017-Nov-09 12:30N 31°46' W 010°42'712.9
2017-Nov-09 12:00N 31°51' W 010°38'713.0
2017-Nov-09 11:30N 31°56' W 010°34'4312.9
2017-Nov-09 08:08N 32°31' W 010°03'212.9
2017-Nov-09 08:01N 32°33' W 010°02'612.9
2017-Nov-09 07:31N 32°38' W 009°57'612.9
2017-Nov-09 07:00N 32°43' W 009°53'713.0
2017-Nov-09 06:30N 32°48' W 009°48'713.0
2017-Nov-09 06:01N 32°54' W 009°44'713.3
2017-Nov-09 05:31N 32°59' W 009°39'713.0
2017-Nov-09 05:00N 33°04' W 009°34'613.0
2017-Nov-09 04:30N 33°09' W 009°29'713.0
2017-Nov-09 04:00N 33°14' W 009°24'713.1
2017-Nov-09 03:30N 33°19' W 009°19'613.1
2017-Nov-09 03:00N 33°24' W 009°15'713.2
2017-Nov-09 02:30N 33°30' W 009°10'713.3
2017-Nov-09 01:59N 33°35' W 009°06'713.1
2017-Nov-09 01:27N 33°41' W 009°01'713.2
2017-Nov-09 00:57N 33°47' W 008°56'613.1
2017-Nov-09 00:30N 33°51' W 008°52'713.4
2017-Nov-08 23:56N 33°57' W 008°46'713.6
2017-Nov-08 23:25N 34°03' W 008°41'713.6
2017-Nov-08 22:55N 34°08' W 008°36'222 7.5
2017-Nov-07 17:08N 36°06' W 004°45'312.7
2017-Nov-07 16:53N 36°06' W 004°41'512.9
2017-Nov-07 16:28N 36°05' W 004°34'1112.8
2017-Nov-07 15:35N 36°05' W 004°21'212.5
2017-Nov-07 15:28N 36°05' W 004°19'712.3
2017-Nov-07 14:52N 36°06' W 004°10'712.4
2017-Nov-07 14:19N 36°06' W 004°01'  
2017-Nov-04 14:49N 36°31' E 013°30'513.8
2017-Nov-04 14:27N 36°29' E 013°36'614.0
2017-Nov-04 14:00N 36°27' E 013°43'713.8
2017-Nov-04 13:30N 36°25' E 013°51'713.8
2017-Nov-04 13:00N 36°22' E 013°59'713.7
2017-Nov-04 12:30N 36°20' E 014°07'713.3
2017-Nov-04 12:00N 36°16' E 014°14'713.7
2017-Nov-04 11:30N 36°14' E 014°22'713.5
2017-Nov-04 11:00N 36°12' E 014°30'713.1
2017-Nov-04 10:30N 36°10' E 014°38'713.4
2017-Nov-04 10:00N 36°07' E 014°45'1013.4
2017-Nov-04 09:14N 36°04' E 014°57'44711.7
2017-Nov-02 18:58N 37°30' E 024°06'1613.6
2017-Nov-02 17:49N 37°44' E 024°16'913.1
2017-Nov-02 17:10N 37°49' E 024°25'613.7
2017-Nov-02 16:42N 37°52' E 024°31'  
Track history (hours):
 
Tides and Currents Weather Stations Pressure Air Temp Water Temp Dewpoint Dewpoint Depression Visibility Wind Speed Wind Dir Waves Ship Positions

Saga Tide

Last reported at 2017-Nov-11 05:01 UTC. Time now 2017-Nov-22 02:06 UTC.
Position N 24°44' W 016°40'.
Warning: this ship's position is 10 days out of date.

Length 199 m; draft 8.1 m.

Type: Cargo ship. MMSI: 367154168.

Date/timePositionNaut miles runAvg speedWind from/ knotsBaromVisibWave heightAir tempDewpointWater temp
2017-Nov-11 05:01N 24°44' W 016°40'013.3
2017-Nov-11 04:59N 24°45' W 016°40'813.3
2017-Nov-11 04:24N 24°51' W 016°34'613.4
2017-Nov-11 03:57N 24°55' W 016°29'12312.9
2017-Nov-10 18:24N 26°26' W 014°57'512.4
2017-Nov-10 18:00N 26°30' W 014°54'612.3
2017-Nov-10 17:30N 26°35' W 014°50'612.4
2017-Nov-10 17:00N 26°40' W 014°46'612.4
2017-Nov-10 16:30N 26°45' W 014°41'612.4
2017-Nov-10 16:00N 26°50' W 014°37'612.6
2017-Nov-10 15:30N 26°55' W 014°32'612.6
2017-Nov-10 15:00N 26°59' W 014°27'712.7
2017-Nov-10 14:27N 27°04' W 014°22'712.9
2017-Nov-10 13:56N 27°09' W 014°17'612.8
2017-Nov-10 13:30N 27°13' W 014°13'1213.1
2017-Nov-10 12:37N 27°23' W 014°06'213.6
2017-Nov-10 12:30N 27°24' W 014°05'713.9
2017-Nov-10 12:00N 27°30' W 014°01'713.9
2017-Nov-10 11:31N 27°36' W 013°56'713.9
2017-Nov-10 11:00N 27°41' W 013°51'713.6
2017-Nov-10 10:30N 27°47' W 013°47'713.5
2017-Nov-10 10:00N 27°52' W 013°42'713.3
2017-Nov-10 09:30N 27°58' W 013°38'713.2
2017-Nov-10 09:00N 28°03' W 013°34'713.0
2017-Nov-10 08:30N 28°09' W 013°31'913.0
2017-Nov-10 07:49N 28°17' W 013°26'412.9
2017-Nov-10 07:30N 28°20' W 013°23'612.7
2017-Nov-10 07:00N 28°26' W 013°20'612.8
2017-Nov-10 06:30N 28°31' W 013°16'713.2
2017-Nov-10 06:00N 28°36' W 013°11'612.9
2017-Nov-10 05:30N 28°42' W 013°07'612.8
2017-Nov-10 05:00N 28°47' W 013°03'612.4
2017-Nov-10 04:30N 28°52' W 012°59'612.4
2017-Nov-10 04:00N 28°57' W 012°55'612.2
2017-Nov-10 03:30N 29°02' W 012°51'612.3
2017-Nov-10 03:00N 29°08' W 012°47'612.6
2017-Nov-10 02:30N 29°13' W 012°44'612.5
2017-Nov-10 02:00N 29°18' W 012°40'612.3
2017-Nov-10 01:30N 29°23' W 012°36'612.6
2017-Nov-10 01:00N 29°29' W 012°32'712.9
2017-Nov-10 00:28N 29°34' W 012°27'613.1
2017-Nov-10 00:00N 29°39' W 012°23'613.1
2017-Nov-09 23:30N 29°45' W 012°19'713.1
2017-Nov-09 23:00N 29°50' W 012°15'713.1
2017-Nov-09 22:30N 29°56' W 012°11'813.2
2017-Nov-09 21:53N 30°03' W 012°06'713.2
2017-Nov-09 21:21N 30°09' W 012°01'1112.8
2017-Nov-09 20:28N 30°18' W 011°54'613.1
2017-Nov-09 20:00N 30°23' W 011°49'813.5
2017-Nov-09 19:26N 30°29' W 011°44'613.9
2017-Nov-09 19:00N 30°34' W 011°40'713.6
2017-Nov-09 18:30N 30°39' W 011°36'713.3
2017-Nov-09 18:00N 30°45' W 011°31'713.7
2017-Nov-09 17:30N 30°51' W 011°27'913.7
2017-Nov-09 16:49N 30°58' W 011°21'414.0
2017-Nov-09 16:30N 31°02' W 011°18'714.2
2017-Nov-09 16:00N 31°08' W 011°13'3213.4
2017-Nov-09 13:39N 31°33' W 010°52'212.8
2017-Nov-09 13:30N 31°35' W 010°51'612.9
2017-Nov-09 13:00N 31°40' W 010°46'612.9
2017-Nov-09 12:30N 31°46' W 010°42'712.9
2017-Nov-09 12:00N 31°51' W 010°38'713.0
2017-Nov-09 11:30N 31°56' W 010°34'4312.9
2017-Nov-09 08:08N 32°31' W 010°03'212.9
2017-Nov-09 08:01N 32°33' W 010°02'612.9
2017-Nov-09 07:31N 32°38' W 009°57'612.9
2017-Nov-09 07:00N 32°43' W 009°53'713.0
2017-Nov-09 06:30N 32°48' W 009°48'713.0
2017-Nov-09 06:01N 32°54' W 009°44'713.3
2017-Nov-09 05:31N 32°59' W 009°39'713.0
2017-Nov-09 05:00N 33°04' W 009°34'613.0
2017-Nov-09 04:30N 33°09' W 009°29'713.0
2017-Nov-09 04:00N 33°14' W 009°24'713.1
2017-Nov-09 03:30N 33°19' W 009°19'613.1
2017-Nov-09 03:00N 33°24' W 009°15'713.2
2017-Nov-09 02:30N 33°30' W 009°10'713.3
2017-Nov-09 01:59N 33°35' W 009°06'713.1
2017-Nov-09 01:27N 33°41' W 009°01'713.2
2017-Nov-09 00:57N 33°47' W 008°56'613.1
2017-Nov-09 00:30N 33°51' W 008°52'713.4
2017-Nov-08 23:56N 33°57' W 008°46'713.6
2017-Nov-08 23:25N 34°03' W 008°41'713.6
2017-Nov-08 22:55N 34°08' W 008°36'222 7.5
2017-Nov-07 17:08N 36°06' W 004°45'312.7
2017-Nov-07 16:53N 36°06' W 004°41'512.9
2017-Nov-07 16:28N 36°05' W 004°34'1112.8
2017-Nov-07 15:35N 36°05' W 004°21'212.5
2017-Nov-07 15:28N 36°05' W 004°19'712.3
2017-Nov-07 14:52N 36°06' W 004°10'712.4
2017-Nov-07 14:19N 36°06' W 004°01'  
2017-Nov-04 14:49N 36°31' E 013°30'513.8
2017-Nov-04 14:27N 36°29' E 013°36'614.0
2017-Nov-04 14:00N 36°27' E 013°43'713.8
2017-Nov-04 13:30N 36°25' E 013°51'713.8
2017-Nov-04 13:00N 36°22' E 013°59'713.7
2017-Nov-04 12:30N 36°20' E 014°07'713.3
2017-Nov-04 12:00N 36°16' E 014°14'713.7
2017-Nov-04 11:30N 36°14' E 014°22'713.5
2017-Nov-04 11:00N 36°12' E 014°30'713.1
2017-Nov-04 10:30N 36°10' E 014°38'713.4
2017-Nov-04 10:00N 36°07' E 014°45'1013.4
2017-Nov-04 09:14N 36°04' E 014°57'44711.7
2017-Nov-02 18:58N 37°30' E 024°06'1613.6
2017-Nov-02 17:49N 37°44' E 024°16'913.1
2017-Nov-02 17:10N 37°49' E 024°25'613.7
2017-Nov-02 16:42N 37°52' E 024°31'  

Dump ship's entire track history